createdAt,value
2019-01-13T00:00:15.562Z,3.00
2019-01-13T00:02:43.991Z,3.00
2019-01-13T00:05:12.463Z,3.00
2019-01-13T00:07:40.942Z,3.10
2019-01-13T00:10:13.659Z,3.10
2019-01-13T00:12:42.071Z,3.10
2019-01-13T00:15:10.518Z,3.10
2019-01-13T00:17:39.194Z,3.10
2019-01-13T00:20:10.714Z,3.20
2019-01-13T00:22:39.152Z,3.20
2019-01-13T00:25:11.955Z,3.20
2019-01-13T00:27:40.412Z,3.20
2019-01-13T00:30:19.322Z,3.30
2019-01-13T00:32:47.851Z,3.30
2019-01-13T00:35:16.687Z,3.30
2019-01-13T00:37:45.634Z,3.30
2019-01-13T00:40:19.111Z,3.30
2019-01-13T00:42:47.730Z,3.30
2019-01-13T00:45:16.865Z,3.30
2019-01-13T00:47:45.387Z,3.30
2019-01-13T00:50:15.456Z,3.30
2019-01-13T00:52:44.234Z,3.30
2019-01-13T00:55:14.938Z,3.30
2019-01-13T00:57:43.443Z,3.20
2019-01-13T01:00:26.365Z,3.30
2019-01-13T01:02:51.473Z,3.20
2019-01-13T01:05:20.438Z,3.20
2019-01-13T01:07:51.179Z,3.20
2019-01-13T01:10:20.834Z,3.20
2019-01-13T01:12:49.600Z,3.20
2019-01-13T01:15:18.002Z,3.10
2019-01-13T01:17:46.430Z,3.10
2019-01-13T01:20:16.295Z,3.10
2019-01-13T01:22:44.711Z,3.00
2019-01-13T01:25:15.591Z,3.00
2019-01-13T01:27:44.646Z,2.90
2019-01-13T01:30:15.694Z,2.90
2019-01-13T01:32:44.155Z,2.80
2019-01-13T01:35:13.054Z,2.80
2019-01-13T01:37:42.463Z,2.80
2019-01-13T01:40:14.003Z,2.80
2019-01-13T01:42:42.510Z,2.80
2019-01-13T01:45:13.298Z,2.80
2019-01-13T01:47:41.710Z,2.90
2019-01-13T01:50:12.166Z,2.90
2019-01-13T01:52:40.603Z,2.90
2019-01-13T01:55:12.087Z,2.90
2019-01-13T01:57:40.601Z,2.90
2019-01-13T02:00:15.144Z,3.00
2019-01-13T02:02:43.863Z,3.00
2019-01-13T02:05:12.116Z,3.00
2019-01-13T02:07:40.734Z,3.00
2019-01-13T02:10:12.211Z,3.10
2019-01-13T02:12:41.011Z,3.20
2019-01-13T02:15:15.094Z,3.20
2019-01-13T02:17:43.506Z,3.30
2019-01-13T02:20:14.972Z,3.20
2019-01-13T02:22:43.641Z,3.30
2019-01-13T02:25:15.091Z,3.30
2019-01-13T02:27:46.596Z,3.40
2019-01-13T02:30:18.156Z,3.40
2019-01-13T02:32:46.719Z,3.40
2019-01-13T02:35:15.124Z,3.50
2019-01-13T02:37:43.527Z,3.50
2019-01-13T02:40:14.872Z,3.50
2019-01-13T02:42:43.755Z,3.60
2019-01-13T02:45:15.301Z,3.60
2019-01-13T02:47:48.841Z,3.60
2019-01-13T02:50:17.336Z,3.60
2019-01-13T02:52:45.848Z,3.60
2019-01-13T02:55:14.255Z,3.70
2019-01-13T02:57:46.339Z,3.70
2019-01-13T03:00:17.590Z,3.70
2019-01-13T03:02:46.015Z,3.70
2019-01-13T03:05:14.860Z,3.70
2019-01-13T03:07:43.370Z,3.60
2019-01-13T03:10:22.591Z,3.50
2019-01-13T03:12:55.212Z,3.50
2019-01-13T03:15:24.783Z,3.40
2019-01-13T03:17:53.730Z,3.30
2019-01-13T03:20:22.611Z,3.30
2019-01-13T03:22:51.037Z,3.40
2019-01-13T03:25:21.239Z,3.40
2019-01-13T03:27:49.946Z,3.40
2019-01-13T03:30:20.839Z,3.50
2019-01-13T03:32:49.248Z,3.50
2019-01-13T03:35:18.388Z,3.40
2019-01-13T03:37:47.103Z,3.40
2019-01-13T03:40:20.246Z,3.40
2019-01-13T03:42:49.204Z,3.40
2019-01-13T03:45:18.587Z,3.40
2019-01-13T03:47:47.282Z,3.50
2019-01-13T03:50:20.797Z,3.50
2019-01-13T03:52:53.227Z,3.50
2019-01-13T03:55:21.745Z,3.50
2019-01-13T03:57:50.169Z,3.60
2019-01-13T04:00:23.452Z,3.60
2019-01-13T04:02:52.574Z,3.60
2019-01-13T04:05:21.042Z,3.60
2019-01-13T04:07:49.557Z,3.60
2019-01-13T04:10:18.427Z,3.70
2019-01-13T04:12:47.303Z,3.70
2019-01-13T04:15:27.031Z,3.70
2019-01-13T04:17:56.998Z,3.80
2019-01-13T04:20:25.438Z,3.80
2019-01-13T04:22:53.876Z,3.80
2019-01-13T04:25:22.285Z,3.80
2019-01-13T04:27:50.733Z,3.80
2019-01-13T04:30:19.137Z,3.80
2019-01-13T04:32:47.583Z,3.80
2019-01-13T04:35:16.022Z,3.80
2019-01-13T04:37:44.461Z,3.80
2019-01-13T04:40:12.910Z,3.80
2019-01-13T04:42:41.312Z,3.80
2019-01-13T04:45:11.602Z,3.80
2019-01-13T04:47:40.022Z,3.80
2019-01-13T04:50:11.552Z,3.90
2019-01-13T04:52:40.035Z,3.90
2019-01-13T04:55:09.726Z,3.90
2019-01-13T04:57:38.160Z,3.80
2019-01-13T05:00:09.654Z,3.80
2019-01-13T05:02:38.111Z,3.90
2019-01-13T05:05:07.858Z,3.90
2019-01-13T05:07:36.270Z,3.90
2019-01-13T05:10:08.076Z,4.00
2019-01-13T05:12:36.509Z,4.00
2019-01-13T05:15:07.347Z,4.00
2019-01-13T05:17:35.780Z,4.00
2019-01-13T05:20:07.420Z,3.90
2019-01-13T05:22:35.821Z,4.00
2019-01-13T05:25:06.012Z,4.00
2019-01-13T05:27:34.611Z,4.00
2019-01-13T05:30:08.722Z,4.10
2019-01-13T05:32:37.199Z,4.10
2019-01-13T05:35:05.878Z,4.10
2019-01-13T05:37:34.307Z,4.10
2019-01-13T05:40:02.711Z,4.10
2019-01-13T05:42:31.168Z,4.10
2019-01-13T05:44:59.572Z,4.10
2019-01-13T05:47:28.013Z,4.10
2019-01-13T05:49:56.490Z,4.10
2019-01-13T05:52:24.928Z,4.10
2019-01-13T05:54:53.550Z,4.10
2019-01-13T05:57:22.043Z,4.10
2019-01-13T05:59:50.451Z,4.10
2019-01-13T06:02:18.865Z,4.10
2019-01-13T06:04:47.313Z,4.10
2019-01-13T06:07:16.134Z,4.10
2019-01-13T06:09:44.836Z,4.20
2019-01-13T06:12:13.266Z,4.20
2019-01-13T06:14:41.679Z,4.20
2019-01-13T06:17:13.437Z,4.30
2019-01-13T06:19:41.856Z,4.20
2019-01-13T06:22:10.311Z,4.30
2019-01-13T06:24:38.752Z,4.20
2019-01-13T06:27:07.159Z,4.20
2019-01-13T06:29:35.598Z,4.20
2019-01-13T06:32:07.066Z,4.20
2019-01-13T06:34:35.508Z,4.20
2019-01-13T06:37:04.137Z,4.10
2019-01-13T06:39:32.572Z,4.10
2019-01-13T06:42:01.067Z,4.10
2019-01-13T06:44:29.483Z,4.10
2019-01-13T06:47:01.130Z,4.10
2019-01-13T06:49:29.854Z,4.10
2019-01-13T06:51:58.285Z,4.10
2019-01-13T06:54:26.714Z,4.10
2019-01-13T06:56:55.126Z,4.10
2019-01-13T06:59:23.568Z,4.10
2019-01-13T07:01:51.966Z,4.10
2019-01-13T07:04:20.422Z,4.10
2019-01-13T07:06:48.849Z,4.10
2019-01-13T07:09:17.273Z,4.10
2019-01-13T07:11:45.783Z,4.20
2019-01-13T07:14:14.199Z,4.20
2019-01-13T07:16:46.586Z,4.20
2019-01-13T07:19:14.998Z,4.20
2019-01-13T07:21:43.432Z,4.20
2019-01-13T07:24:11.887Z,4.30
2019-01-13T07:26:40.298Z,4.30
2019-01-13T07:29:08.730Z,4.30
2019-01-13T07:31:37.151Z,4.30
2019-01-13T07:34:05.587Z,4.40
2019-01-13T07:36:34.061Z,4.30
2019-01-13T07:39:02.655Z,4.30
2019-01-13T07:41:31.157Z,4.30
2019-01-13T07:43:59.578Z,4.40
2019-01-13T07:46:27.983Z,4.40
2019-01-13T07:48:56.413Z,4.40
2019-01-13T07:51:24.819Z,4.40
2019-01-13T07:53:53.383Z,4.50
2019-01-13T07:56:21.821Z,4.50
2019-01-13T07:58:50.252Z,4.50
2019-01-13T08:01:18.670Z,4.60
2019-01-13T08:03:47.110Z,4.60
2019-01-13T08:06:15.527Z,4.60
2019-01-13T08:08:43.959Z,4.70
2019-01-13T08:11:12.387Z,4.70
2019-01-13T08:13:40.819Z,4.80
2019-01-13T08:16:09.239Z,4.70
2019-01-13T08:18:37.702Z,4.70
2019-01-13T08:21:06.305Z,4.80
2019-01-13T08:23:34.803Z,4.80
2019-01-13T08:26:03.212Z,4.90
2019-01-13T08:28:31.659Z,4.90
2019-01-13T08:31:00.066Z,4.90
2019-01-13T08:33:31.462Z,4.90
2019-01-13T08:35:59.898Z,4.90
2019-01-13T08:38:28.311Z,5.00
2019-01-13T08:40:56.759Z,5.00
2019-01-13T08:43:25.171Z,5.10
2019-01-13T08:45:53.594Z,5.10
2019-01-13T08:48:25.535Z,5.10
2019-01-13T08:50:53.990Z,5.20
2019-01-13T08:53:22.440Z,5.20
2019-01-13T08:55:50.846Z,5.30
2019-01-13T08:58:19.299Z,5.30
2019-01-13T09:00:47.703Z,5.30
2019-01-13T09:03:16.135Z,5.30
2019-01-13T09:05:44.558Z,5.40
2019-01-13T09:08:13.014Z,5.60
2019-01-13T09:10:41.432Z,5.90
2019-01-13T09:13:09.835Z,6.30
2019-01-13T09:15:38.293Z,6.30
2019-01-13T09:18:06.859Z,6.10
2019-01-13T09:20:35.721Z,5.90
2019-01-13T09:23:04.739Z,5.80
2019-01-13T09:25:33.181Z,5.70
2019-01-13T09:28:01.635Z,5.60
2019-01-13T09:30:30.591Z,5.50
2019-01-13T09:32:59.030Z,5.40
2019-01-13T09:35:27.875Z,5.40
2019-01-13T09:37:56.456Z,5.40
2019-01-13T09:40:27.011Z,5.40
2019-01-13T09:42:56.097Z,5.40
2019-01-13T09:45:25.385Z,5.40
2019-01-13T09:47:54.190Z,5.40
2019-01-13T09:50:24.232Z,5.40
2019-01-13T09:52:53.367Z,5.40
2019-01-13T09:55:23.959Z,5.40
2019-01-13T09:57:53.291Z,5.30
2019-01-13T10:00:24.735Z,5.20
2019-01-13T10:02:53.408Z,5.20
2019-01-13T10:05:21.857Z,5.20
2019-01-13T10:07:50.374Z,5.20
2019-01-13T10:10:18.780Z,5.30
2019-01-13T10:12:47.211Z,5.20
2019-01-13T10:15:21.076Z,5.30
2019-01-13T10:17:49.501Z,5.30
2019-01-13T10:20:18.019Z,5.30
2019-01-13T10:22:46.711Z,5.20
2019-01-13T10:25:15.987Z,5.20
2019-01-13T10:27:44.790Z,5.20
2019-01-13T10:30:18.970Z,5.20
2019-01-13T10:32:54.330Z,5.30
2019-01-13T10:35:21.526Z,5.30
2019-01-13T10:37:51.442Z,5.30
2019-01-13T10:40:23.465Z,5.30
2019-01-13T10:42:52.703Z,5.30
2019-01-13T10:45:21.167Z,5.30
2019-01-13T10:47:49.582Z,5.30
2019-01-13T10:50:27.076Z,5.20
2019-01-13T10:52:57.363Z,5.10
2019-01-13T10:55:26.358Z,5.10
2019-01-13T10:57:54.931Z,5.10
2019-01-13T11:00:26.212Z,5.10
2019-01-13T11:03:01.718Z,5.10
2019-01-13T11:05:25.001Z,5.00
2019-01-13T11:07:54.456Z,5.00
2019-01-13T11:10:22.896Z,5.00
2019-01-13T11:12:51.311Z,5.00
2019-01-13T11:15:21.885Z,4.90
2019-01-13T11:17:50.756Z,4.90
2019-01-13T11:20:27.571Z,4.90
2019-01-13T11:22:56.051Z,4.80
2019-01-13T11:25:24.554Z,4.80
2019-01-13T11:27:52.971Z,4.80
2019-01-13T11:30:23.575Z,4.80
2019-01-13T11:32:52.230Z,4.70
2019-01-13T11:35:21.009Z,4.60
2019-01-13T11:37:49.975Z,4.60
2019-01-13T11:40:21.532Z,4.40
2019-01-13T11:42:50.066Z,4.40
2019-01-13T11:45:18.670Z,4.20
2019-01-13T11:47:47.120Z,4.20
2019-01-13T11:50:20.935Z,4.10
2019-01-13T11:52:49.727Z,4.00
2019-01-13T11:55:18.698Z,3.90
2019-01-13T11:57:47.209Z,3.80
2019-01-13T12:00:21.786Z,3.80
2019-01-13T12:02:50.200Z,3.70
2019-01-13T12:05:18.643Z,3.70
2019-01-13T12:07:47.366Z,3.50
2019-01-13T12:10:18.614Z,3.50
2019-01-13T12:12:47.571Z,3.50
2019-01-13T12:15:17.944Z,3.50
2019-01-13T12:17:46.448Z,3.40
2019-01-13T12:20:20.270Z,3.30
2019-01-13T12:22:49.143Z,3.30
2019-01-13T12:25:20.007Z,3.30
2019-01-13T12:27:48.495Z,3.30
2019-01-13T12:30:28.297Z,3.20
2019-01-13T12:32:57.099Z,3.20
2019-01-13T12:35:25.541Z,3.20
2019-01-13T12:37:54.091Z,3.20
2019-01-13T12:40:24.837Z,3.20
2019-01-13T12:43:07.559Z,3.20
2019-01-13T12:45:31.546Z,3.20
2019-01-13T12:48:00.161Z,3.20
2019-01-13T12:50:30.189Z,3.30
2019-01-13T12:53:05.886Z,3.30
2019-01-13T12:55:34.372Z,3.40
2019-01-13T12:58:02.821Z,3.50
2019-01-13T13:00:31.263Z,3.50
2019-01-13T13:02:59.713Z,3.50
2019-01-13T13:05:28.120Z,3.60
2019-01-13T13:08:00.047Z,3.60
2019-01-13T13:10:34.279Z,3.60
2019-01-13T13:13:02.697Z,3.60
2019-01-13T13:15:31.140Z,3.60
2019-01-13T13:17:59.638Z,3.60
2019-01-13T13:20:28.195Z,3.60
2019-01-13T13:22:56.668Z,3.70
2019-01-13T13:25:31.575Z,3.70
2019-01-13T13:27:55.295Z,3.80
2019-01-13T13:30:25.689Z,3.80
2019-01-13T13:32:54.236Z,3.80
2019-01-13T13:35:22.679Z,3.80
2019-01-13T13:37:52.319Z,3.80
2019-01-13T13:40:26.023Z,3.80
2019-01-13T13:42:54.431Z,3.80
2019-01-13T13:45:23.395Z,3.80
2019-01-13T13:47:51.824Z,3.80
2019-01-13T13:50:25.519Z,3.90
2019-01-13T13:52:54.454Z,3.90
2019-01-13T13:55:23.339Z,3.90
2019-01-13T13:57:51.994Z,3.90
2019-01-13T14:00:32.674Z,4.00
2019-01-13T14:03:01.174Z,4.00
2019-01-13T14:05:30.010Z,4.10
2019-01-13T14:07:58.419Z,4.10
2019-01-13T14:10:29.844Z,4.10
2019-01-13T14:12:58.361Z,4.20
2019-01-13T14:15:26.796Z,4.20
2019-01-13T14:17:55.598Z,4.20
2019-01-13T14:20:24.540Z,4.20
2019-01-13T14:22:53.022Z,4.30
2019-01-13T14:25:22.541Z,4.40
2019-01-13T14:27:51.162Z,4.30
2019-01-13T14:30:22.548Z,4.40
2019-01-13T14:32:51.271Z,4.40
2019-01-13T14:35:20.293Z,4.40
2019-01-13T14:37:49.358Z,4.50
2019-01-13T14:40:26.043Z,4.50
2019-01-13T14:42:54.545Z,4.50
2019-01-13T14:45:24.746Z,4.60
2019-01-13T14:47:53.613Z,4.60
2019-01-13T14:50:24.679Z,4.70
2019-01-13T14:52:53.764Z,4.70
2019-01-13T14:55:25.451Z,4.80
2019-01-13T14:57:54.031Z,4.80
2019-01-13T15:00:29.411Z,4.90
2019-01-13T15:02:58.038Z,5.00
2019-01-13T15:05:26.563Z,5.10
2019-01-13T15:07:54.996Z,5.20
2019-01-13T15:10:25.057Z,5.30
2019-01-13T15:12:54.664Z,5.40
2019-01-13T15:15:23.316Z,5.60
2019-01-13T15:17:51.755Z,5.60
2019-01-13T15:20:22.309Z,5.70
2019-01-13T15:22:51.733Z,5.70
2019-01-13T15:25:23.286Z,5.70
2019-01-13T15:27:51.724Z,5.80
2019-01-13T15:30:25.735Z,5.90
2019-01-13T15:32:54.168Z,5.90
2019-01-13T15:35:22.587Z,5.90
2019-01-13T15:37:51.018Z,6.00
2019-01-13T15:40:24.713Z,6.00
2019-01-13T15:42:53.146Z,6.00
2019-01-13T15:45:21.578Z,6.10
2019-01-13T15:47:49.974Z,6.20
2019-01-13T15:50:24.399Z,6.20
2019-01-13T15:52:52.881Z,6.20
2019-01-13T15:55:28.744Z,6.20
2019-01-13T15:57:57.186Z,6.30
2019-01-13T16:00:33.279Z,6.30
2019-01-13T16:03:01.687Z,6.30
2019-01-13T16:05:30.360Z,6.40
2019-01-13T16:07:59.053Z,6.50
2019-01-13T16:10:27.491Z,6.60
2019-01-13T16:12:56.171Z,6.60
2019-01-13T16:15:24.987Z,6.60
2019-01-13T16:17:53.502Z,6.60
2019-01-13T16:20:27.594Z,6.70
2019-01-13T16:22:56.039Z,6.70
2019-01-13T16:25:24.487Z,6.70
2019-01-13T16:27:52.923Z,6.70
2019-01-13T16:30:24.226Z,6.70
2019-01-13T16:32:52.679Z,6.80
2019-01-13T16:35:21.083Z,6.90
2019-01-13T16:37:49.705Z,6.90
2019-01-13T16:40:20.929Z,6.90
2019-01-13T16:42:49.411Z,6.90
2019-01-13T16:45:18.733Z,7.00
2019-01-13T16:47:48.190Z,7.10
2019-01-13T16:50:22.597Z,7.10
2019-01-13T16:52:52.895Z,7.10
2019-01-13T16:55:22.368Z,7.10
2019-01-13T16:57:51.165Z,7.00
2019-01-13T17:00:25.049Z,7.00
2019-01-13T17:02:53.450Z,7.00
2019-01-13T17:05:26.526Z,7.00
2019-01-13T17:07:55.018Z,7.00
2019-01-13T17:10:25.544Z,7.00
2019-01-13T17:12:54.058Z,7.00
2019-01-13T17:15:25.505Z,6.90
2019-01-13T17:17:53.973Z,6.90
2019-01-13T17:20:23.282Z,6.80
2019-01-13T17:22:51.754Z,6.80
2019-01-13T17:25:25.125Z,6.80
2019-01-13T17:27:58.147Z,6.80
2019-01-13T17:30:31.760Z,6.80
2019-01-13T17:33:00.227Z,6.70
2019-01-13T17:35:28.710Z,6.70
2019-01-13T17:37:57.141Z,6.60
2019-01-13T17:40:26.024Z,6.60
2019-01-13T17:42:58.650Z,6.60
2019-01-13T17:45:29.568Z,6.60
2019-01-13T17:47:57.987Z,6.60
2019-01-13T17:50:28.163Z,6.70
2019-01-13T17:52:57.554Z,6.70
2019-01-13T17:55:28.230Z,6.60
2019-01-13T17:57:57.210Z,6.70
2019-01-13T18:00:28.900Z,6.70
2019-01-13T18:03:00.470Z,6.70
2019-01-13T18:05:28.971Z,6.70
2019-01-13T18:07:57.412Z,6.70
2019-01-13T18:10:25.863Z,6.70
2019-01-13T18:12:54.283Z,6.70
2019-01-13T18:15:22.699Z,6.80
2019-01-13T18:17:51.144Z,6.80
2019-01-13T18:20:23.304Z,6.80
2019-01-13T18:22:51.727Z,6.80
2019-01-13T18:25:20.228Z,6.80
2019-01-13T18:27:53.947Z,6.90
2019-01-13T18:30:27.233Z,6.90
2019-01-13T18:32:55.670Z,6.90
2019-01-13T18:35:24.545Z,6.90
2019-01-13T18:37:52.959Z,6.90
2019-01-13T18:40:23.907Z,7.00
2019-01-13T18:42:52.393Z,7.00
2019-01-13T18:45:20.811Z,7.00
2019-01-13T18:47:49.252Z,7.00
2019-01-13T18:50:22.622Z,7.00
2019-01-13T18:53:00.275Z,7.00
2019-01-13T18:55:28.714Z,7.00
2019-01-13T18:57:57.190Z,7.00
2019-01-13T19:00:26.304Z,7.00
2019-01-13T19:02:55.739Z,7.00
2019-01-13T19:05:26.629Z,7.00
2019-01-13T19:07:55.111Z,7.00
2019-01-13T19:10:35.168Z,7.00
2019-01-13T19:13:12.391Z,7.10
2019-01-13T19:15:45.060Z,7.10
2019-01-13T19:18:13.476Z,7.00
2019-01-13T19:20:41.889Z,7.00
2019-01-13T19:23:10.403Z,7.00
2019-01-13T19:25:38.999Z,7.00
2019-01-13T19:28:07.542Z,7.00
2019-01-13T19:30:36.043Z,7.00
2019-01-13T19:33:05.228Z,7.00
2019-01-13T19:35:33.732Z,7.00
2019-01-13T19:38:02.267Z,7.00
2019-01-13T19:40:30.673Z,7.00
2019-01-13T19:42:59.504Z,6.90
2019-01-13T19:45:28.510Z,6.90
2019-01-13T19:47:57.036Z,6.90
2019-01-13T19:50:25.821Z,6.90
2019-01-13T19:52:57.485Z,6.90
2019-01-13T19:55:28.938Z,6.90
2019-01-13T19:57:57.503Z,6.90
2019-01-13T20:00:31.989Z,6.90
2019-01-13T20:03:00.400Z,6.80
2019-01-13T20:05:29.566Z,6.80
2019-01-13T20:07:58.265Z,6.70
2019-01-13T20:10:26.799Z,6.70
2019-01-13T20:12:55.248Z,6.70
2019-01-13T20:15:24.188Z,6.70
2019-01-13T20:17:52.655Z,6.60
2019-01-13T20:20:22.251Z,6.70
2019-01-13T20:22:51.076Z,6.80
2019-01-13T20:25:20.040Z,6.70
2019-01-13T20:27:48.452Z,6.80
2019-01-13T20:30:19.609Z,6.70
2019-01-13T20:32:48.111Z,6.60
2019-01-13T20:35:19.389Z,6.70
2019-01-13T20:37:46.931Z,6.80
2019-01-13T20:40:16.967Z,6.70
2019-01-13T20:42:45.964Z,6.60
2019-01-13T20:45:23.665Z,6.60
2019-01-13T20:47:52.245Z,6.70
2019-01-13T20:50:21.067Z,6.70
2019-01-13T20:52:49.592Z,6.70
2019-01-13T20:55:17.985Z,6.80
2019-01-13T20:57:46.519Z,6.80
2019-01-13T21:00:28.782Z,6.80
2019-01-13T21:02:57.259Z,6.80
2019-01-13T21:05:26.967Z,6.70
2019-01-13T21:07:55.836Z,6.80
2019-01-13T21:10:25.175Z,6.70
2019-01-13T21:12:53.619Z,6.80
2019-01-13T21:15:29.150Z,6.70
2019-01-13T21:17:57.974Z,6.80
2019-01-13T21:20:26.771Z,6.90
2019-01-13T21:22:55.579Z,6.80
2019-01-13T21:25:24.062Z,6.70
2019-01-13T21:27:53.850Z,6.50
2019-01-13T21:30:28.084Z,6.50
2019-01-13T21:32:56.782Z,6.40
2019-01-13T21:35:25.231Z,6.20
2019-01-13T21:37:54.042Z,6.10
2019-01-13T21:40:22.631Z,5.90
2019-01-13T21:42:51.043Z,5.80
2019-01-13T21:45:21.702Z,5.80
2019-01-13T21:47:50.160Z,5.70
2019-01-13T21:50:24.211Z,5.70
2019-01-13T21:52:52.948Z,5.70
2019-01-13T21:55:21.625Z,5.70
2019-01-13T21:57:50.091Z,5.70
2019-01-13T22:00:23.706Z,5.80
2019-01-13T22:02:52.773Z,5.80
